sensor_id;sensor_type;location;lat;lon;timestamp;P1;durP1;ratioP1;P2;durP2;ratioP2
8938;SDS011;4504;48.810;9.172;2023-07-16T00:02:00;118.77;;;4.70;;
8938;SDS011;4504;48.810;9.172;2023-07-16T00:04:27;118.90;;;5.47;;
8938;SDS011;4504;48.810;9.172;2023-07-16T00:06:54;119.40;;;5.90;;
8938;SDS011;4504;48.810;9.172;2023-07-16T00:09:21;120.30;;;6.43;;
8938;SDS011;4504;48.810;9.172;2023-07-16T00:11:49;119.27;;;6.03;;
8938;SDS011;4504;48.810;9.172;2023-07-16T00:14:17;119.17;;;4.80;;
8938;SDS011;4504;48.810;9.172;2023-07-16T00:16:45;119.97;;;4.50;;
8938;SDS011;4504;48.810;9.172;2023-07-16T00:19:13;119.37;;;4.13;;
8938;SDS011;4504;48.810;9.172;2023-07-16T00:21:41;118.47;;;3.97;;
8938;SDS011;4504;48.810;9.172;2023-07-16T00:24:08;118.30;;;4.10;;
8938;SDS011;4504;48.810;9.172;2023-07-16T00:26:35;117.40;;;3.80;;
8938;SDS011;4504;48.810;9.172;2023-07-16T00:29:02;117.00;;;3.67;;
8938;SDS011;4504;48.810;9.172;2023-07-16T00:31:29;117.37;;;3.60;;
8938;SDS011;4504;48.810;9.172;2023-07-16T00:33:58;115.97;;;3.57;;
8938;SDS011;4504;48.810;9.172;2023-07-16T00:36:25;115.77;;;3.13;;
8938;SDS011;4504;48.810;9.172;2023-07-16T00:38:52;117.60;;;3.70;;
8938;SDS011;4504;48.810;9.172;2023-07-16T00:41:19;119.83;;;3.50;;
8938;SDS011;4504;48.810;9.172;2023-07-16T00:43:46;116.90;;;3.57;;
8938;SDS011;4504;48.810;9.172;2023-07-16T00:46:13;115.67;;;3.13;;
8938;SDS011;4504;48.810;9.172;2023-07-16T00:48:40;116.10;;;3.10;;
8938;SDS011;4504;48.810;9.172;2023-07-16T00:51:09;116.13;;;3.03;;
8938;SDS011;4504;48.810;9.172;2023-07-16T00:53:36;115.27;;;3.23;;
8938;SDS011;4504;48.810;9.172;2023-07-16T00:56:04;116.33;;;3.23;;
8938;SDS011;4504;48.810;9.172;2023-07-16T00:58:32;116.27;;;3.20;;
8938;SDS011;4504;48.810;9.172;2023-07-16T01:00:59;116.23;;;3.20;;
8938;SDS011;4504;48.810;9.172;2023-07-16T01:03:26;116.83;;;3.17;;
8938;SDS011;4504;48.810;9.172;2023-07-16T01:05:55;116.17;;;3.50;;
8938;SDS011;4504;48.810;9.172;2023-07-16T01:08:29;116.50;;;3.00;;
8938;SDS011;4504;48.810;9.172;2023-07-16T01:10:59;116.87;;;3.40;;
8938;SDS011;4504;48.810;9.172;2023-07-16T01:13:27;116.80;;;3.30;;
8938;SDS011;4504;48.810;9.172;2023-07-16T01:15:55;116.90;;;3.00;;
8938;SDS011;4504;48.810;9.172;2023-07-16T01:18:22;117.10;;;3.23;;
8938;SDS011;4504;48.810;9.172;2023-07-16T01:20:49;119.10;;;3.30;;
8938;SDS011;4504;48.810;9.172;2023-07-16T01:23:30;116.07;;;3.50;;
8938;SDS011;4504;48.810;9.172;2023-07-16T01:26:17;116.13;;;3.13;;
8938;SDS011;4504;48.810;9.172;2023-07-16T01:29:11;117.90;;;3.40;;
8938;SDS011;4504;48.810;9.172;2023-07-16T01:31:45;117.17;;;3.60;;
8938;SDS011;4504;48.810;9.172;2023-07-16T01:34:12;118.67;;;3.97;;
8938;SDS011;4504;48.810;9.172;2023-07-16T01:36:40;120.70;;;3.67;;
8938;SDS011;4504;48.810;9.172;2023-07-16T01:39:08;117.63;;;3.90;;
8938;SDS011;4504;48.810;9.172;2023-07-16T01:41:35;116.93;;;3.40;;
8938;SDS011;4504;48.810;9.172;2023-07-16T01:44:03;115.50;;;3.50;;
8938;SDS011;4504;48.810;9.172;2023-07-16T01:46:31;115.60;;;3.57;;
8938;SDS011;4504;48.810;9.172;2023-07-16T01:48:58;116.97;;;3.40;;
8938;SDS011;4504;48.810;9.172;2023-07-16T01:51:25;118.90;;;3.80;;
8938;SDS011;4504;48.810;9.172;2023-07-16T01:53:52;117.53;;;3.93;;
8938;SDS011;4504;48.810;9.172;2023-07-16T01:56:19;116.37;;;3.60;;
8938;SDS011;4504;48.810;9.172;2023-07-16T01:58:47;117.40;;;4.10;;
8938;SDS011;4504;48.810;9.172;2023-07-16T02:01:14;116.70;;;3.50;;
8938;SDS011;4504;48.810;9.172;2023-07-16T02:03:42;117.63;;;3.50;;
8938;SDS011;4504;48.810;9.172;2023-07-16T02:06:09;116.77;;;3.37;;
8938;SDS011;4504;48.810;9.172;2023-07-16T02:08:36;115.77;;;3.20;;
8938;SDS011;4504;48.810;9.172;2023-07-16T02:11:03;117.57;;;3.60;;
8938;SDS011;4504;48.810;9.172;2023-07-16T02:13:30;118.47;;;3.80;;
8938;SDS011;4504;48.810;9.172;2023-07-16T02:15:58;118.87;;;3.83;;
8938;SDS011;4504;48.810;9.172;2023-07-16T02:18:25;116.60;;;3.57;;
8938;SDS011;4504;48.810;9.172;2023-07-16T02:20:53;116.07;;;3.13;;
8938;SDS011;4504;48.810;9.172;2023-07-16T02:23:20;117.40;;;3.30;;
8938;SDS011;4504;48.810;9.172;2023-07-16T02:25:47;119.07;;;3.53;;
8938;SDS011;4504;48.810;9.172;2023-07-16T02:28:16;117.10;;;3.80;;
8938;SDS011;4504;48.810;9.172;2023-07-16T02:30:42;120.10;;;3.70;;
8938;SDS011;4504;48.810;9.172;2023-07-16T02:33:11;116.57;;;3.50;;
8938;SDS011;4504;48.810;9.172;2023-07-16T02:35:38;116.20;;;3.23;;
8938;SDS011;4504;48.810;9.172;2023-07-16T02:38:06;117.80;;;3.60;;
8938;SDS011;4504;48.810;9.172;2023-07-16T02:40:33;116.27;;;3.40;;
8938;SDS011;4504;48.810;9.172;2023-07-16T02:43:00;117.53;;;3.30;;
8938;SDS011;4504;48.810;9.172;2023-07-16T02:45:27;118.00;;;3.77;;
8938;SDS011;4504;48.810;9.172;2023-07-16T02:47:54;116.77;;;3.50;;
8938;SDS011;4504;48.810;9.172;2023-07-16T02:50:21;116.97;;;3.20;;
8938;SDS011;4504;48.810;9.172;2023-07-16T02:52:48;117.07;;;3.50;;
8938;SDS011;4504;48.810;9.172;2023-07-16T02:55:16;117.60;;;3.40;;
8938;SDS011;4504;48.810;9.172;2023-07-16T02:57:43;117.77;;;3.57;;
8938;SDS011;4504;48.810;9.172;2023-07-16T03:00:11;117.17;;;3.87;;
8938;SDS011;4504;48.810;9.172;2023-07-16T03:02:38;117.13;;;3.47;;
8938;SDS011;4504;48.810;9.172;2023-07-16T03:05:05;116.97;;;3.30;;
8938;SDS011;4504;48.810;9.172;2023-07-16T03:07:33;116.40;;;3.90;;
8938;SDS011;4504;48.810;9.172;2023-07-16T03:10:00;117.00;;;3.33;;
8938;SDS011;4504;48.810;9.172;2023-07-16T03:12:29;117.40;;;3.43;;
8938;SDS011;4504;48.810;9.172;2023-07-16T03:14:56;117.17;;;3.50;;
8938;SDS011;4504;48.810;9.172;2023-07-16T03:17:23;118.27;;;3.23;;
8938;SDS011;4504;48.810;9.172;2023-07-16T03:19:51;117.30;;;3.50;;
8938;SDS011;4504;48.810;9.172;2023-07-16T03:22:18;117.00;;;3.60;;
8938;SDS011;4504;48.810;9.172;2023-07-16T03:24:45;117.27;;;3.47;;
8938;SDS011;4504;48.810;9.172;2023-07-16T03:27:12;117.87;;;3.90;;
8938;SDS011;4504;48.810;9.172;2023-07-16T03:29:42;117.53;;;3.73;;
8938;SDS011;4504;48.810;9.172;2023-07-16T03:32:13;117.50;;;3.47;;
8938;SDS011;4504;48.810;9.172;2023-07-16T03:34:40;117.30;;;3.70;;
8938;SDS011;4504;48.810;9.172;2023-07-16T03:37:06;117.60;;;3.63;;
8938;SDS011;4504;48.810;9.172;2023-07-16T03:39:33;116.87;;;4.03;;
8938;SDS011;4504;48.810;9.172;2023-07-16T03:42:01;116.40;;;3.70;;
8938;SDS011;4504;48.810;9.172;2023-07-16T03:44:29;118.07;;;3.73;;
8938;SDS011;4504;48.810;9.172;2023-07-16T03:46:59;117.77;;;3.90;;
8938;SDS011;4504;48.810;9.172;2023-07-16T03:49:26;119.63;;;3.90;;
8938;SDS011;4504;48.810;9.172;2023-07-16T03:51:53;117.57;;;3.60;;
8938;SDS011;4504;48.810;9.172;2023-07-16T03:54:20;117.30;;;3.80;;
8938;SDS011;4504;48.810;9.172;2023-07-16T03:56:47;117.37;;;3.50;;
8938;SDS011;4504;48.810;9.172;2023-07-16T03:59:14;118.70;;;3.43;;
8938;SDS011;4504;48.810;9.172;2023-07-16T04:01:41;119.47;;;3.80;;
8938;SDS011;4504;48.810;9.172;2023-07-16T04:04:10;119.17;;;3.80;;
8938;SDS011;4504;48.810;9.172;2023-07-16T04:06:37;119.33;;;3.80;;
8938;SDS011;4504;48.810;9.172;2023-07-16T04:09:04;117.47;;;3.87;;
8938;SDS011;4504;48.810;9.172;2023-07-16T04:11:31;117.77;;;3.83;;
8938;SDS011;4504;48.810;9.172;2023-07-16T04:13:58;117.90;;;3.80;;
8938;SDS011;4504;48.810;9.172;2023-07-16T04:16:25;119.20;;;3.90;;
8938;SDS011;4504;48.810;9.172;2023-07-16T04:18:52;119.57;;;3.87;;
8938;SDS011;4504;48.810;9.172;2023-07-16T04:21:20;118.00;;;3.47;;
8938;SDS011;4504;48.810;9.172;2023-07-16T04:23:47;121.43;;;3.70;;
8938;SDS011;4504;48.810;9.172;2023-07-16T04:26:14;116.80;;;3.50;;
8938;SDS011;4504;48.810;9.172;2023-07-16T04:28:41;121.30;;;4.17;;
8938;SDS011;4504;48.810;9.172;2023-07-16T04:31:08;117.30;;;3.80;;
8938;SDS011;4504;48.810;9.172;2023-07-16T04:33:35;117.97;;;3.73;;
8938;SDS011;4504;48.810;9.172;2023-07-16T04:36:02;117.80;;;3.80;;
8938;SDS011;4504;48.810;9.172;2023-07-16T04:38:31;116.53;;;3.60;;
8938;SDS011;4504;48.810;9.172;2023-07-16T04:40:58;117.20;;;3.63;;
8938;SDS011;4504;48.810;9.172;2023-07-16T04:43:25;116.87;;;3.43;;
8938;SDS011;4504;48.810;9.172;2023-07-16T04:45:52;115.80;;;3.67;;
8938;SDS011;4504;48.810;9.172;2023-07-16T04:48:19;117.57;;;3.60;;
8938;SDS011;4504;48.810;9.172;2023-07-16T04:50:46;120.37;;;4.20;;
8938;SDS011;4504;48.810;9.172;2023-07-16T04:53:13;117.37;;;3.37;;
8938;SDS011;4504;48.810;9.172;2023-07-16T04:55:44;116.80;;;3.53;;
8938;SDS011;4504;48.810;9.172;2023-07-16T04:58:11;117.93;;;3.60;;
8938;SDS011;4504;48.810;9.172;2023-07-16T05:00:38;116.70;;;3.57;;
8938;SDS011;4504;48.810;9.172;2023-07-16T05:03:05;116.17;;;3.33;;
8938;SDS011;4504;48.810;9.172;2023-07-16T05:05:32;121.27;;;3.53;;
8938;SDS011;4504;48.810;9.172;2023-07-16T05:08:00;121.40;;;4.20;;
8938;SDS011;4504;48.810;9.172;2023-07-16T05:10:27;116.57;;;3.37;;
8938;SDS011;4504;48.810;9.172;2023-07-16T05:12:56;117.90;;;4.07;;
8938;SDS011;4504;48.810;9.172;2023-07-16T05:15:23;115.73;;;3.20;;
8938;SDS011;4504;48.810;9.172;2023-07-16T05:17:50;114.50;;;3.10;;
8938;SDS011;4504;48.810;9.172;2023-07-16T05:20:17;117.13;;;3.87;;
8938;SDS011;4504;48.810;9.172;2023-07-16T05:22:44;115.90;;;3.93;;
8938;SDS011;4504;48.810;9.172;2023-07-16T05:25:11;115.90;;;3.20;;
8938;SDS011;4504;48.810;9.172;2023-07-16T05:27:38;122.67;;;3.50;;
8938;SDS011;4504;48.810;9.172;2023-07-16T05:30:07;117.30;;;3.20;;
8938;SDS011;4504;48.810;9.172;2023-07-16T05:32:34;117.13;;;3.37;;
8938;SDS011;4504;48.810;9.172;2023-07-16T05:35:02;117.30;;;3.70;;
8938;SDS011;4504;48.810;9.172;2023-07-16T05:37:29;116.63;;;3.30;;
8938;SDS011;4504;48.810;9.172;2023-07-16T05:39:56;120.17;;;3.70;;
8938;SDS011;4504;48.810;9.172;2023-07-16T05:42:23;118.37;;;3.70;;
8938;SDS011;4504;48.810;9.172;2023-07-16T05:44:50;117.93;;;3.70;;
8938;SDS011;4504;48.810;9.172;2023-07-16T05:47:19;116.77;;;3.40;;
8938;SDS011;4504;48.810;9.172;2023-07-16T05:49:46;116.47;;;3.07;;
8938;SDS011;4504;48.810;9.172;2023-07-16T05:52:13;117.27;;;3.13;;
8938;SDS011;4504;48.810;9.172;2023-07-16T05:54:40;116.60;;;3.27;;
8938;SDS011;4504;48.810;9.172;2023-07-16T05:57:07;116.83;;;3.40;;
8938;SDS011;4504;48.810;9.172;2023-07-16T05:59:34;116.27;;;3.37;;
8938;SDS011;4504;48.810;9.172;2023-07-16T06:02:02;122.80;;;3.50;;
8938;SDS011;4504;48.810;9.172;2023-07-16T06:04:31;117.10;;;3.80;;
8938;SDS011;4504;48.810;9.172;2023-07-16T06:06:58;116.90;;;3.40;;
8938;SDS011;4504;48.810;9.172;2023-07-16T06:09:25;116.67;;;3.23;;
8938;SDS011;4504;48.810;9.172;2023-07-16T06:11:52;113.77;;;3.47;;
8938;SDS011;4504;48.810;9.172;2023-07-16T06:14:19;118.13;;;3.70;;
8938;SDS011;4504;48.810;9.172;2023-07-16T06:16:46;115.70;;;3.00;;
8938;SDS011;4504;48.810;9.172;2023-07-16T06:19:13;119.20;;;3.37;;
8938;SDS011;4504;48.810;9.172;2023-07-16T06:21:41;117.07;;;3.50;;
8938;SDS011;4504;48.810;9.172;2023-07-16T06:24:08;116.60;;;3.80;;
8938;SDS011;4504;48.810;9.172;2023-07-16T06:26:35;125.77;;;3.80;;
8938;SDS011;4504;48.810;9.172;2023-07-16T06:29:02;118.83;;;3.57;;
8938;SDS011;4504;48.810;9.172;2023-07-16T06:31:29;118.40;;;4.30;;
8938;SDS011;4504;48.810;9.172;2023-07-16T06:33:56;117.77;;;3.70;;
8938;SDS011;4504;48.810;9.172;2023-07-16T06:36:23;116.57;;;3.50;;
8938;SDS011;4504;48.810;9.172;2023-07-16T06:38:51;115.20;;;3.40;;
8938;SDS011;4504;48.810;9.172;2023-07-16T06:41:19;117.00;;;3.33;;
8938;SDS011;4504;48.810;9.172;2023-07-16T06:43:45;114.57;;;3.17;;
8938;SDS011;4504;48.810;9.172;2023-07-16T06:46:13;116.53;;;3.30;;
8938;SDS011;4504;48.810;9.172;2023-07-16T06:48:39;115.40;;;3.03;;
8938;SDS011;4504;48.810;9.172;2023-07-16T06:51:06;114.80;;;3.00;;
8938;SDS011;4504;48.810;9.172;2023-07-16T06:53:33;114.07;;;2.90;;
8938;SDS011;4504;48.810;9.172;2023-07-16T06:56:03;116.70;;;3.60;;
8938;SDS011;4504;48.810;9.172;2023-07-16T06:58:30;115.13;;;3.20;;
8938;SDS011;4504;48.810;9.172;2023-07-16T07:00:58;115.47;;;3.20;;
8938;SDS011;4504;48.810;9.172;2023-07-16T07:03:25;116.07;;;3.70;;
8938;SDS011;4504;48.810;9.172;2023-07-16T07:05:52;116.30;;;3.80;;
8938;SDS011;4504;48.810;9.172;2023-07-16T07:08:19;117.40;;;3.70;;
8938;SDS011;4504;48.810;9.172;2023-07-16T07:10:46;119.33;;;3.50;;
8938;SDS011;4504;48.810;9.172;2023-07-16T07:13:16;114.37;;;3.50;;
8938;SDS011;4504;48.810;9.172;2023-07-16T07:15:43;115.63;;;3.40;;
8938;SDS011;4504;48.810;9.172;2023-07-16T07:18:10;115.60;;;3.80;;
8938;SDS011;4504;48.810;9.172;2023-07-16T07:20:36;114.17;;;3.57;;
8938;SDS011;4504;48.810;9.172;2023-07-16T07:23:03;117.20;;;4.07;;
8938;SDS011;4504;48.810;9.172;2023-07-16T07:25:30;114.87;;;3.40;;
8938;SDS011;4504;48.810;9.172;2023-07-16T07:27:57;116.30;;;4.00;;
8938;SDS011;4504;48.810;9.172;2023-07-16T07:30:26;117.40;;;3.50;;
8938;SDS011;4504;48.810;9.172;2023-07-16T07:32:53;113.57;;;3.40;;
8938;SDS011;4504;48.810;9.172;2023-07-16T07:35:20;116.03;;;3.50;;
8938;SDS011;4504;48.810;9.172;2023-07-16T07:37:47;115.33;;;3.00;;
8938;SDS011;4504;48.810;9.172;2023-07-16T07:40:14;117.10;;;3.77;;
8938;SDS011;4504;48.810;9.172;2023-07-16T07:42:41;115.27;;;3.60;;
8938;SDS011;4504;48.810;9.172;2023-07-16T07:45:08;115.00;;;3.23;;
8938;SDS011;4504;48.810;9.172;2023-07-16T07:47:37;114.37;;;3.30;;
8938;SDS011;4504;48.810;9.172;2023-07-16T07:50:05;116.57;;;3.50;;
8938;SDS011;4504;48.810;9.172;2023-07-16T07:52:32;116.07;;;3.30;;
8938;SDS011;4504;48.810;9.172;2023-07-16T07:54:59;116.00;;;3.00;;
8938;SDS011;4504;48.810;9.172;2023-07-16T07:57:26;115.50;;;3.00;;
8938;SDS011;4504;48.810;9.172;2023-07-16T07:59:53;114.60;;;3.00;;
8938;SDS011;4504;48.810;9.172;2023-07-16T08:02:22;118.20;;;3.30;;
8938;SDS011;4504;48.810;9.172;2023-07-16T08:04:52;115.27;;;2.97;;
8938;SDS011;4504;48.810;9.172;2023-07-16T08:07:19;114.77;;;3.47;;
8938;SDS011;4504;48.810;9.172;2023-07-16T08:09:46;114.70;;;3.30;;
8938;SDS011;4504;48.810;9.172;2023-07-16T08:12:13;114.53;;;3.43;;
8938;SDS011;4504;48.810;9.172;2023-07-16T08:14:40;115.50;;;3.70;;
8938;SDS011;4504;48.810;9.172;2023-07-16T08:17:07;114.40;;;3.03;;
8938;SDS011;4504;48.810;9.172;2023-07-16T08:19:34;114.90;;;3.40;;
8938;SDS011;4504;48.810;9.172;2023-07-16T08:22:03;117.73;;;3.60;;
8938;SDS011;4504;48.810;9.172;2023-07-16T08:24:30;112.27;;;3.00;;
8938;SDS011;4504;48.810;9.172;2023-07-16T08:26:57;113.87;;;3.50;;
8938;SDS011;4504;48.810;9.172;2023-07-16T08:29:24;113.60;;;3.10;;
8938;SDS011;4504;48.810;9.172;2023-07-16T08:31:51;115.40;;;3.20;;
8938;SDS011;4504;48.810;9.172;2023-07-16T08:34:18;114.60;;;3.43;;
8938;SDS011;4504;48.810;9.172;2023-07-16T08:36:45;113.27;;;3.50;;
8938;SDS011;4504;48.810;9.172;2023-07-16T08:39:13;112.30;;;3.07;;
8938;SDS011;4504;48.810;9.172;2023-07-16T08:41:40;118.00;;;3.43;;
8938;SDS011;4504;48.810;9.172;2023-07-16T08:44:08;112.07;;;2.63;;
8938;SDS011;4504;48.810;9.172;2023-07-16T08:46:35;112.50;;;2.80;;
8938;SDS011;4504;48.810;9.172;2023-07-16T08:49:02;114.97;;;3.10;;
8938;SDS011;4504;48.810;9.172;2023-07-16T08:51:31;112.20;;;2.87;;
8938;SDS011;4504;48.810;9.172;2023-07-16T08:54:00;113.57;;;3.00;;
8938;SDS011;4504;48.810;9.172;2023-07-16T08:56:29;111.70;;;3.33;;
8938;SDS011;4504;48.810;9.172;2023-07-16T08:58:56;112.03;;;2.70;;
8938;SDS011;4504;48.810;9.172;2023-07-16T09:01:24;111.60;;;3.17;;
8938;SDS011;4504;48.810;9.172;2023-07-16T09:03:51;115.10;;;3.83;;
8938;SDS011;4504;48.810;9.172;2023-07-16T09:06:19;112.87;;;3.60;;
8938;SDS011;4504;48.810;9.172;2023-07-16T09:08:46;111.23;;;2.83;;
8938;SDS011;4504;48.810;9.172;2023-07-16T09:11:13;111.93;;;2.80;;
8938;SDS011;4504;48.810;9.172;2023-07-16T09:13:45;112.00;;;2.90;;
8938;SDS011;4504;48.810;9.172;2023-07-16T09:16:12;111.37;;;2.50;;
8938;SDS011;4504;48.810;9.172;2023-07-16T09:18:41;110.47;;;2.63;;
8938;SDS011;4504;48.810;9.172;2023-07-16T09:21:08;111.40;;;2.60;;
8938;SDS011;4504;48.810;9.172;2023-07-16T09:23:35;112.20;;;3.20;;
8938;SDS011;4504;48.810;9.172;2023-07-16T09:26:03;111.57;;;2.50;;
8938;SDS011;4504;48.810;9.172;2023-07-16T09:28:30;111.07;;;2.70;;
8938;SDS011;4504;48.810;9.172;2023-07-16T09:31:04;112.90;;;2.83;;
8938;SDS011;4504;48.810;9.172;2023-07-16T09:33:32;119.90;;;2.90;;
8938;SDS011;4504;48.810;9.172;2023-07-16T09:35:59;113.80;;;2.80;;
8938;SDS011;4504;48.810;9.172;2023-07-16T09:38:28;111.00;;;2.43;;
8938;SDS011;4504;48.810;9.172;2023-07-16T09:40:55;110.93;;;2.90;;
8938;SDS011;4504;48.810;9.172;2023-07-16T09:43:22;109.70;;;2.27;;
8938;SDS011;4504;48.810;9.172;2023-07-16T09:45:50;112.10;;;2.60;;
8938;SDS011;4504;48.810;9.172;2023-07-16T09:48:18;112.37;;;2.87;;
8938;SDS011;4504;48.810;9.172;2023-07-16T09:50:48;110.83;;;2.53;;
8938;SDS011;4504;48.810;9.172;2023-07-16T09:53:19;111.07;;;2.50;;
8938;SDS011;4504;48.810;9.172;2023-07-16T09:55:47;111.00;;;2.60;;
8938;SDS011;4504;48.810;9.172;2023-07-16T09:58:15;111.53;;;2.80;;
8938;SDS011;4504;48.810;9.172;2023-07-16T10:00:45;111.87;;;2.67;;
8938;SDS011;4504;48.810;9.172;2023-07-16T10:03:14;110.47;;;2.63;;
8938;SDS011;4504;48.810;9.172;2023-07-16T10:05:43;111.17;;;2.50;;
8938;SDS011;4504;48.810;9.172;2023-07-16T10:08:17;111.77;;;2.40;;
8938;SDS011;4504;48.810;9.172;2023-07-16T10:10:46;112.90;;;2.60;;
8938;SDS011;4504;48.810;9.172;2023-07-16T10:13:14;109.37;;;2.67;;
8938;SDS011;4504;48.810;9.172;2023-07-16T10:15:51;110.10;;;2.50;;
8938;SDS011;4504;48.810;9.172;2023-07-16T10:18:23;111.10;;;3.70;;
8938;SDS011;4504;48.810;9.172;2023-07-16T10:20:54;110.90;;;2.50;;
8938;SDS011;4504;48.810;9.172;2023-07-16T10:23:25;109.63;;;2.50;;
8938;SDS011;4504;48.810;9.172;2023-07-16T10:26:04;109.37;;;2.20;;
8938;SDS011;4504;48.810;9.172;2023-07-16T10:28:31;109.87;;;2.53;;
8938;SDS011;4504;48.810;9.172;2023-07-16T10:30:58;110.30;;;2.77;;
8938;SDS011;4504;48.810;9.172;2023-07-16T10:33:25;109.77;;;2.20;;
8938;SDS011;4504;48.810;9.172;2023-07-16T10:35:55;109.20;;;2.50;;
8938;SDS011;4504;48.810;9.172;2023-07-16T10:38:23;108.00;;;2.20;;
8938;SDS011;4504;48.810;9.172;2023-07-16T10:40:50;109.40;;;2.20;;
8938;SDS011;4504;48.810;9.172;2023-07-16T10:43:17;109.30;;;2.00;;
8938;SDS011;4504;48.810;9.172;2023-07-16T10:45:45;110.30;;;2.63;;
8938;SDS011;4504;48.810;9.172;2023-07-16T10:48:12;109.60;;;2.37;;
8938;SDS011;4504;48.810;9.172;2023-07-16T10:50:40;107.80;;;2.03;;
8938;SDS011;4504;48.810;9.172;2023-07-16T10:53:08;106.30;;;2.10;;
8938;SDS011;4504;48.810;9.172;2023-07-16T10:55:37;106.97;;;2.40;;
8938;SDS011;4504;48.810;9.172;2023-07-16T10:58:07;107.80;;;2.13;;
8938;SDS011;4504;48.810;9.172;2023-07-16T11:00:36;106.20;;;2.00;;
8938;SDS011;4504;48.810;9.172;2023-07-16T11:03:05;114.40;;;2.40;;
8938;SDS011;4504;48.810;9.172;2023-07-16T11:05:32;106.40;;;2.07;;
8938;SDS011;4504;48.810;9.172;2023-07-16T11:07:59;109.40;;;2.20;;
8938;SDS011;4504;48.810;9.172;2023-07-16T11:10:29;108.13;;;2.40;;
8938;SDS011;4504;48.810;9.172;2023-07-16T11:12:56;107.30;;;2.30;;
8938;SDS011;4504;48.810;9.172;2023-07-16T11:15:30;107.97;;;2.07;;
8938;SDS011;4504;48.810;9.172;2023-07-16T11:17:58;106.67;;;2.13;;
8938;SDS011;4504;48.810;9.172;2023-07-16T11:20:25;107.27;;;2.33;;
8938;SDS011;4504;48.810;9.172;2023-07-16T11:22:52;107.20;;;1.90;;
8938;SDS011;4504;48.810;9.172;2023-07-16T11:25:19;109.60;;;2.47;;
8938;SDS011;4504;48.810;9.172;2023-07-16T11:27:53;107.27;;;2.10;;
8938;SDS011;4504;48.810;9.172;2023-07-16T11:30:22;107.60;;;2.20;;
8938;SDS011;4504;48.810;9.172;2023-07-16T11:32:49;108.87;;;2.23;;
8938;SDS011;4504;48.810;9.172;2023-07-16T11:35:17;107.13;;;2.23;;
8938;SDS011;4504;48.810;9.172;2023-07-16T11:37:45;108.07;;;2.10;;
8938;SDS011;4504;48.810;9.172;2023-07-16T11:40:14;109.30;;;2.50;;
8938;SDS011;4504;48.810;9.172;2023-07-16T11:42:42;109.17;;;2.53;;
8938;SDS011;4504;48.810;9.172;2023-07-16T11:45:17;108.30;;;2.30;;
8938;SDS011;4504;48.810;9.172;2023-07-16T11:47:44;108.07;;;2.50;;
8938;SDS011;4504;48.810;9.172;2023-07-16T11:50:12;108.00;;;2.40;;
8938;SDS011;4504;48.810;9.172;2023-07-16T11:52:39;107.60;;;2.20;;
8938;SDS011;4504;48.810;9.172;2023-07-16T11:55:07;107.80;;;2.23;;
8938;SDS011;4504;48.810;9.172;2023-07-16T11:57:34;108.47;;;2.30;;
8938;SDS011;4504;48.810;9.172;2023-07-16T12:00:01;107.13;;;2.20;;
8938;SDS011;4504;48.810;9.172;2023-07-16T12:02:33;105.93;;;2.20;;
8938;SDS011;4504;48.810;9.172;2023-07-16T12:05:00;107.50;;;2.00;;
8938;SDS011;4504;48.810;9.172;2023-07-16T12:07:30;106.33;;;2.50;;
8938;SDS011;4504;48.810;9.172;2023-07-16T12:09:59;108.30;;;2.40;;
8938;SDS011;4504;48.810;9.172;2023-07-16T12:12:26;105.97;;;2.10;;
8938;SDS011;4504;48.810;9.172;2023-07-16T12:14:53;104.80;;;1.97;;
8938;SDS011;4504;48.810;9.172;2023-07-16T12:17:20;104.20;;;2.00;;
8938;SDS011;4504;48.810;9.172;2023-07-16T12:19:49;104.47;;;1.93;;
8938;SDS011;4504;48.810;9.172;2023-07-16T12:22:17;104.03;;;2.10;;
8938;SDS011;4504;48.810;9.172;2023-07-16T12:24:44;102.40;;;2.07;;
8938;SDS011;4504;48.810;9.172;2023-07-16T12:27:13;103.90;;;2.10;;
8938;SDS011;4504;48.810;9.172;2023-07-16T12:29:41;108.83;;;2.40;;
8938;SDS011;4504;48.810;9.172;2023-07-16T12:32:09;103.00;;;2.20;;
8938;SDS011;4504;48.810;9.172;2023-07-16T12:34:36;101.50;;;2.03;;
8938;SDS011;4504;48.810;9.172;2023-07-16T12:37:05;102.53;;;1.80;;
8938;SDS011;4504;48.810;9.172;2023-07-16T12:39:32;101.27;;;1.70;;
8938;SDS011;4504;48.810;9.172;2023-07-16T12:41:59;105.00;;;2.43;;
8938;SDS011;4504;48.810;9.172;2023-07-16T12:44:26;101.17;;;1.50;;
8938;SDS011;4504;48.810;9.172;2023-07-16T12:46:53;99.93;;;1.70;;
8938;SDS011;4504;48.810;9.172;2023-07-16T12:49:20;101.37;;;1.70;;
8938;SDS011;4504;48.810;9.172;2023-07-16T12:51:47;105.23;;;2.10;;
8938;SDS011;4504;48.810;9.172;2023-07-16T12:54:15;100.50;;;1.70;;
8938;SDS011;4504;48.810;9.172;2023-07-16T12:56:42;102.10;;;1.73;;
8938;SDS011;4504;48.810;9.172;2023-07-16T12:59:09;101.87;;;1.57;;
8938;SDS011;4504;48.810;9.172;2023-07-16T13:01:36;101.77;;;1.70;;
8938;SDS011;4504;48.810;9.172;2023-07-16T13:04:03;104.00;;;2.03;;
8938;SDS011;4504;48.810;9.172;2023-07-16T13:06:30;102.90;;;1.73;;
8938;SDS011;4504;48.810;9.172;2023-07-16T13:08:57;102.70;;;2.03;;
8938;SDS011;4504;48.810;9.172;2023-07-16T13:11:25;103.00;;;1.70;;
8938;SDS011;4504;48.810;9.172;2023-07-16T13:13:52;100.50;;;1.67;;
8938;SDS011;4504;48.810;9.172;2023-07-16T13:16:19;101.03;;;1.73;;
8938;SDS011;4504;48.810;9.172;2023-07-16T13:18:46;102.10;;;1.80;;
8938;SDS011;4504;48.810;9.172;2023-07-16T13:21:13;100.87;;;1.57;;
8938;SDS011;4504;48.810;9.172;2023-07-16T13:23:40;102.30;;;1.83;;
8938;SDS011;4504;48.810;9.172;2023-07-16T13:26:07;102.30;;;1.70;;
8938;SDS011;4504;48.810;9.172;2023-07-16T13:28:36;102.50;;;1.70;;
8938;SDS011;4504;48.810;9.172;2023-07-16T13:31:03;102.43;;;1.80;;
8938;SDS011;4504;48.810;9.172;2023-07-16T13:33:30;102.30;;;1.80;;
8938;SDS011;4504;48.810;9.172;2023-07-16T13:35:57;101.50;;;1.60;;
8938;SDS011;4504;48.810;9.172;2023-07-16T13:38:26;102.80;;;1.77;;
8938;SDS011;4504;48.810;9.172;2023-07-16T13:40:53;102.17;;;1.67;;
8938;SDS011;4504;48.810;9.172;2023-07-16T13:43:20;102.77;;;1.80;;
8938;SDS011;4504;48.810;9.172;2023-07-16T13:45:48;102.90;;;2.10;;
8938;SDS011;4504;48.810;9.172;2023-07-16T13:48:15;102.47;;;1.70;;
8938;SDS011;4504;48.810;9.172;2023-07-16T13:50:42;102.50;;;1.70;;
8938;SDS011;4504;48.810;9.172;2023-07-16T13:53:09;102.13;;;1.60;;
8938;SDS011;4504;48.810;9.172;2023-07-16T13:55:36;104.40;;;1.70;;
8938;SDS011;4504;48.810;9.172;2023-07-16T13:58:03;102.30;;;1.80;;
8938;SDS011;4504;48.810;9.172;2023-07-16T14:00:30;102.57;;;1.70;;
8938;SDS011;4504;48.810;9.172;2023-07-16T14:02:59;101.43;;;1.60;;
8938;SDS011;4504;48.810;9.172;2023-07-16T14:05:26;107.67;;;2.03;;
8938;SDS011;4504;48.810;9.172;2023-07-16T14:07:53;103.60;;;1.77;;
8938;SDS011;4504;48.810;9.172;2023-07-16T14:10:20;102.73;;;1.60;;
8938;SDS011;4504;48.810;9.172;2023-07-16T14:12:47;103.70;;;1.80;;
8938;SDS011;4504;48.810;9.172;2023-07-16T14:15:15;102.60;;;1.70;;
8938;SDS011;4504;48.810;9.172;2023-07-16T14:17:42;102.57;;;1.77;;
8938;SDS011;4504;48.810;9.172;2023-07-16T14:20:10;103.97;;;2.00;;
8938;SDS011;4504;48.810;9.172;2023-07-16T14:22:37;104.00;;;2.10;;
8938;SDS011;4504;48.810;9.172;2023-07-16T14:25:05;104.70;;;1.90;;
8938;SDS011;4504;48.810;9.172;2023-07-16T14:27:32;103.50;;;1.80;;
8938;SDS011;4504;48.810;9.172;2023-07-16T14:29:59;104.60;;;1.87;;
8938;SDS011;4504;48.810;9.172;2023-07-16T14:32:26;103.50;;;1.90;;
8938;SDS011;4504;48.810;9.172;2023-07-16T14:34:54;104.97;;;1.90;;
8938;SDS011;4504;48.810;9.172;2023-07-16T14:37:22;105.23;;;2.00;;
8938;SDS011;4504;48.810;9.172;2023-07-16T14:39:49;104.40;;;2.03;;
8938;SDS011;4504;48.810;9.172;2023-07-16T14:42:16;103.67;;;1.80;;
8938;SDS011;4504;48.810;9.172;2023-07-16T14:44:43;104.20;;;2.23;;
8938;SDS011;4504;48.810;9.172;2023-07-16T14:47:10;103.10;;;1.80;;
8938;SDS011;4504;48.810;9.172;2023-07-16T14:49:37;102.90;;;1.70;;
8938;SDS011;4504;48.810;9.172;2023-07-16T14:52:04;101.53;;;1.83;;